sensor_id;sensor_type;location;lat;lon;timestamp;temperature;humidity
851;DHT22;412;51.400;7.480;2023-07-20T00:02:00;20.20;99.90
851;DHT22;412;51.400;7.480;2023-07-20T00:04:25;20.20;99.90
851;DHT22;412;51.400;7.480;2023-07-20T00:06:51;20.10;99.90
851;DHT22;412;51.400;7.480;2023-07-20T00:09:17;20.10;99.90
851;DHT22;412;51.400;7.480;2023-07-20T00:11:49;20.10;99.90
851;DHT22;412;51.400;7.480;2023-07-20T00:14:19;20.10;99.90
851;DHT22;412;51.400;7.480;2023-07-20T00:16:45;20.10;99.90
851;DHT22;412;51.400;7.480;2023-07-20T00:19:12;20.10;99.90
851;DHT22;412;51.400;7.480;2023-07-20T00:21:38;20.10;99.90
851;DHT22;412;51.400;7.480;2023-07-20T00:24:06;20.10;99.90
851;DHT22;412;51.400;7.480;2023-07-20T00:26:31;20.10;99.90
851;DHT22;412;51.400;7.480;2023-07-20T00:28:57;20.10;99.90
851;DHT22;412;51.400;7.480;2023-07-20T00:31:23;20.10;99.90
851;DHT22;412;51.400;7.480;2023-07-20T00:33:48;20.10;99.90
851;DHT22;412;51.400;7.480;2023-07-20T00:36:14;20.10;99.90
851;DHT22;412;51.400;7.480;2023-07-20T00:38:40;20.10;99.90
851;DHT22;412;51.400;7.480;2023-07-20T00:41:06;20.10;99.90
851;DHT22;412;51.400;7.480;2023-07-20T00:43:32;20.10;99.90
851;DHT22;412;51.400;7.480;2023-07-20T00:45:57;20.10;99.90
851;DHT22;412;51.400;7.480;2023-07-20T00:48:23;20.10;99.90
851;DHT22;412;51.400;7.480;2023-07-20T00:50:50;20.10;99.90
851;DHT22;412;51.400;7.480;2023-07-20T00:53:16;20.20;99.90
851;DHT22;412;51.400;7.480;2023-07-20T00:55:42;20.10;99.90
851;DHT22;412;51.400;7.480;2023-07-20T00:58:08;20.10;99.90
851;DHT22;412;51.400;7.480;2023-07-20T01:00:34;20.10;99.90
851;DHT22;412;51.400;7.480;2023-07-20T01:02:59;20.10;99.90
851;DHT22;412;51.400;7.480;2023-07-20T01:08:18;20.10;99.90
851;DHT22;412;51.400;7.480;2023-07-20T01:11:01;20.10;99.90
851;DHT22;412;51.400;7.480;2023-07-20T01:13:32;20.10;99.90
851;DHT22;412;51.400;7.480;2023-07-20T01:16:02;20.10;99.90
851;DHT22;412;51.400;7.480;2023-07-20T01:18:28;20.00;99.90
851;DHT22;412;51.400;7.480;2023-07-20T01:20:59;20.10;99.90
851;DHT22;412;51.400;7.480;2023-07-20T01:26:35;20.10;99.90
851;DHT22;412;51.400;7.480;2023-07-20T01:29:22;20.10;99.90
851;DHT22;412;51.400;7.480;2023-07-20T01:31:57;20.10;99.90
851;DHT22;412;51.400;7.480;2023-07-20T01:34:24;20.10;99.90
851;DHT22;412;51.400;7.480;2023-07-20T01:36:53;20.00;99.90
851;DHT22;412;51.400;7.480;2023-07-20T01:39:20;20.00;99.90
851;DHT22;412;51.400;7.480;2023-07-20T01:41:47;20.00;99.90
851;DHT22;412;51.400;7.480;2023-07-20T01:44:13;20.00;99.90
851;DHT22;412;51.400;7.480;2023-07-20T01:46:39;20.00;99.90
851;DHT22;412;51.400;7.480;2023-07-20T01:49:08;20.00;99.90
851;DHT22;412;51.400;7.480;2023-07-20T01:51:34;20.00;99.90
851;DHT22;412;51.400;7.480;2023-07-20T01:53:59;20.00;99.90
851;DHT22;412;51.400;7.480;2023-07-20T01:56:26;20.00;99.90
851;DHT22;412;51.400;7.480;2023-07-20T01:58:51;19.90;99.90
851;DHT22;412;51.400;7.480;2023-07-20T02:01:18;19.90;99.90
851;DHT22;412;51.400;7.480;2023-07-20T02:03:43;19.90;99.90
851;DHT22;412;51.400;7.480;2023-07-20T02:06:09;19.90;99.90
851;DHT22;412;51.400;7.480;2023-07-20T02:08:35;19.90;99.90
851;DHT22;412;51.400;7.480;2023-07-20T02:11:01;19.90;99.90
851;DHT22;412;51.400;7.480;2023-07-20T02:13:27;19.90;99.90
851;DHT22;412;51.400;7.480;2023-07-20T02:15:52;19.90;99.90
851;DHT22;412;51.400;7.480;2023-07-20T02:18:18;19.80;99.90
851;DHT22;412;51.400;7.480;2023-07-20T02:20:44;19.80;99.90
851;DHT22;412;51.400;7.480;2023-07-20T02:23:10;19.80;99.90
851;DHT22;412;51.400;7.480;2023-07-20T02:25:36;19.80;99.90
851;DHT22;412;51.400;7.480;2023-07-20T02:28:06;19.80;99.90
851;DHT22;412;51.400;7.480;2023-07-20T02:30:32;19.80;99.90
851;DHT22;412;51.400;7.480;2023-07-20T02:32:58;19.80;99.90
851;DHT22;412;51.400;7.480;2023-07-20T02:35:24;19.80;99.90
851;DHT22;412;51.400;7.480;2023-07-20T02:37:50;19.80;99.90
851;DHT22;412;51.400;7.480;2023-07-20T02:40:15;19.80;99.90
851;DHT22;412;51.400;7.480;2023-07-20T02:42:41;19.70;99.90
851;DHT22;412;51.400;7.480;2023-07-20T02:45:07;19.80;99.90
851;DHT22;412;51.400;7.480;2023-07-20T02:47:35;19.80;99.90
851;DHT22;412;51.400;7.480;2023-07-20T02:50:01;19.70;99.90
851;DHT22;412;51.400;7.480;2023-07-20T02:52:27;19.70;99.90
851;DHT22;412;51.400;7.480;2023-07-20T02:54:53;19.70;99.90
851;DHT22;412;51.400;7.480;2023-07-20T02:57:18;19.70;99.90
851;DHT22;412;51.400;7.480;2023-07-20T02:59:44;19.70;99.90
851;DHT22;412;51.400;7.480;2023-07-20T03:02:10;19.70;99.90
851;DHT22;412;51.400;7.480;2023-07-20T03:04:36;19.70;99.90
851;DHT22;412;51.400;7.480;2023-07-20T03:07:05;19.60;99.90
851;DHT22;412;51.400;7.480;2023-07-20T03:09:31;19.60;99.90
851;DHT22;412;51.400;7.480;2023-07-20T03:11:56;19.60;99.90
851;DHT22;412;51.400;7.480;2023-07-20T03:14:22;19.60;99.90
851;DHT22;412;51.400;7.480;2023-07-20T03:16:49;19.60;99.90
851;DHT22;412;51.400;7.480;2023-07-20T03:19:15;19.60;99.90
851;DHT22;412;51.400;7.480;2023-07-20T03:21:40;19.50;99.90
851;DHT22;412;51.400;7.480;2023-07-20T03:24:08;19.50;99.90
851;DHT22;412;51.400;7.480;2023-07-20T03:26:34;19.50;99.90
851;DHT22;412;51.400;7.480;2023-07-20T03:29:00;19.50;99.90
851;DHT22;412;51.400;7.480;2023-07-20T03:31:26;19.40;99.90
851;DHT22;412;51.400;7.480;2023-07-20T03:33:52;19.40;99.90
851;DHT22;412;51.400;7.480;2023-07-20T03:36:19;19.50;99.90
851;DHT22;412;51.400;7.480;2023-07-20T03:38:46;19.50;99.90
851;DHT22;412;51.400;7.480;2023-07-20T03:41:11;19.50;99.90
851;DHT22;412;51.400;7.480;2023-07-20T03:43:40;19.50;99.90
851;DHT22;412;51.400;7.480;2023-07-20T03:46:05;19.50;99.90
851;DHT22;412;51.400;7.480;2023-07-20T03:48:33;19.50;99.90
851;DHT22;412;51.400;7.480;2023-07-20T03:50:59;19.50;99.90
851;DHT22;412;51.400;7.480;2023-07-20T03:53:26;19.50;99.90
851;DHT22;412;51.400;7.480;2023-07-20T03:55:52;19.50;99.90
851;DHT22;412;51.400;7.480;2023-07-20T03:58:19;19.50;99.90
851;DHT22;412;51.400;7.480;2023-07-20T04:00:50;19.50;99.90
851;DHT22;412;51.400;7.480;2023-07-20T04:03:16;19.50;99.90
851;DHT22;412;51.400;7.480;2023-07-20T04:05:43;19.50;99.90
851;DHT22;412;51.400;7.480;2023-07-20T04:08:09;19.50;99.90
851;DHT22;412;51.400;7.480;2023-07-20T04:10:37;19.50;99.90
851;DHT22;412;51.400;7.480;2023-07-20T04:13:03;19.60;99.90
851;DHT22;412;51.400;7.480;2023-07-20T04:15:29;19.50;99.90
851;DHT22;412;51.400;7.480;2023-07-20T04:17:56;19.50;99.90
851;DHT22;412;51.400;7.480;2023-07-20T04:20:23;19.50;99.90
851;DHT22;412;51.400;7.480;2023-07-20T04:22:49;19.60;99.90
851;DHT22;412;51.400;7.480;2023-07-20T04:25:15;19.50;99.90
851;DHT22;412;51.400;7.480;2023-07-20T04:27:41;19.50;99.90
851;DHT22;412;51.400;7.480;2023-07-20T04:30:08;19.50;99.90
851;DHT22;412;51.400;7.480;2023-07-20T04:32:34;19.60;99.90
851;DHT22;412;51.400;7.480;2023-07-20T04:35:00;19.60;99.90
851;DHT22;412;51.400;7.480;2023-07-20T04:37:26;19.50;99.90
851;DHT22;412;51.400;7.480;2023-07-20T04:39:51;19.60;99.90
851;DHT22;412;51.400;7.480;2023-07-20T04:42:18;19.50;99.90
851;DHT22;412;51.400;7.480;2023-07-20T04:44:43;19.50;99.90
851;DHT22;412;51.400;7.480;2023-07-20T04:47:09;19.40;99.90
851;DHT22;412;51.400;7.480;2023-07-20T04:49:35;19.50;99.90
851;DHT22;412;51.400;7.480;2023-07-20T04:52:01;19.50;99.90
851;DHT22;412;51.400;7.480;2023-07-20T04:54:28;19.50;99.90
851;DHT22;412;51.400;7.480;2023-07-20T04:56:54;19.50;99.90
851;DHT22;412;51.400;7.480;2023-07-20T04:59:19;19.50;99.90
851;DHT22;412;51.400;7.480;2023-07-20T05:01:45;19.50;99.90
851;DHT22;412;51.400;7.480;2023-07-20T05:04:12;19.50;99.90
851;DHT22;412;51.400;7.480;2023-07-20T05:06:37;19.50;99.90
851;DHT22;412;51.400;7.480;2023-07-20T05:09:04;19.50;99.90
851;DHT22;412;51.400;7.480;2023-07-20T05:11:33;19.50;99.90
851;DHT22;412;51.400;7.480;2023-07-20T05:14:00;19.50;99.90
851;DHT22;412;51.400;7.480;2023-07-20T05:16:25;19.50;99.90
851;DHT22;412;51.400;7.480;2023-07-20T05:18:51;19.50;99.90
851;DHT22;412;51.400;7.480;2023-07-20T05:21:17;19.50;99.90
851;DHT22;412;51.400;7.480;2023-07-20T05:23:43;19.60;99.90
851;DHT22;412;51.400;7.480;2023-07-20T05:26:09;19.60;99.90
851;DHT22;412;51.400;7.480;2023-07-20T05:28:34;19.70;99.90
851;DHT22;412;51.400;7.480;2023-07-20T05:31:03;19.60;99.90
851;DHT22;412;51.400;7.480;2023-07-20T05:33:28;19.70;99.90
851;DHT22;412;51.400;7.480;2023-07-20T05:35:54;19.70;99.90
851;DHT22;412;51.400;7.480;2023-07-20T05:38:20;19.80;99.90
851;DHT22;412;51.400;7.480;2023-07-20T05:40:46;19.80;99.90
851;DHT22;412;51.400;7.480;2023-07-20T05:43:12;19.90;99.90
851;DHT22;412;51.400;7.480;2023-07-20T05:45:42;19.90;99.90
851;DHT22;412;51.400;7.480;2023-07-20T05:48:09;20.00;99.90
851;DHT22;412;51.400;7.480;2023-07-20T05:50:42;20.00;99.90
851;DHT22;412;51.400;7.480;2023-07-20T05:53:08;20.00;99.90
851;DHT22;412;51.400;7.480;2023-07-20T05:55:33;20.00;99.90
851;DHT22;412;51.400;7.480;2023-07-20T05:57:59;20.00;99.90
851;DHT22;412;51.400;7.480;2023-07-20T06:00:25;20.00;99.90
851;DHT22;412;51.400;7.480;2023-07-20T06:02:53;20.00;99.90
851;DHT22;412;51.400;7.480;2023-07-20T06:05:21;20.10;99.90
851;DHT22;412;51.400;7.480;2023-07-20T06:07:47;20.10;99.90
851;DHT22;412;51.400;7.480;2023-07-20T06:10:12;20.10;99.90
851;DHT22;412;51.400;7.480;2023-07-20T06:12:38;20.10;99.90
851;DHT22;412;51.400;7.480;2023-07-20T06:15:05;20.10;99.90
851;DHT22;412;51.400;7.480;2023-07-20T06:17:31;20.20;99.90
851;DHT22;412;51.400;7.480;2023-07-20T06:19:57;20.20;99.90
851;DHT22;412;51.400;7.480;2023-07-20T06:22:25;20.20;99.90
851;DHT22;412;51.400;7.480;2023-07-20T06:24:51;20.20;99.90
851;DHT22;412;51.400;7.480;2023-07-20T06:27:16;20.20;99.90
851;DHT22;412;51.400;7.480;2023-07-20T06:29:42;20.20;99.90
851;DHT22;412;51.400;7.480;2023-07-20T06:32:08;20.30;99.90
851;DHT22;412;51.400;7.480;2023-07-20T06:34:34;20.30;99.90
851;DHT22;412;51.400;7.480;2023-07-20T06:37:03;20.30;99.90
851;DHT22;412;51.400;7.480;2023-07-20T06:39:30;20.30;99.90
851;DHT22;412;51.400;7.480;2023-07-20T06:41:56;20.40;99.90
851;DHT22;412;51.400;7.480;2023-07-20T06:44:23;20.40;99.90
851;DHT22;412;51.400;7.480;2023-07-20T06:46:48;20.40;99.90
851;DHT22;412;51.400;7.480;2023-07-20T06:49:25;20.90;99.90
851;DHT22;412;51.400;7.480;2023-07-20T06:51:51;21.40;99.90
851;DHT22;412;51.400;7.480;2023-07-20T06:54:17;21.60;99.90
851;DHT22;412;51.400;7.480;2023-07-20T06:56:42;21.70;99.90
851;DHT22;412;51.400;7.480;2023-07-20T06:59:08;22.10;99.90
851;DHT22;412;51.400;7.480;2023-07-20T07:01:36;22.10;99.90
851;DHT22;412;51.400;7.480;2023-07-20T07:04:02;22.30;99.90
851;DHT22;412;51.400;7.480;2023-07-20T07:06:29;22.40;99.90
851;DHT22;412;51.400;7.480;2023-07-20T07:08:54;22.60;99.90
851;DHT22;412;51.400;7.480;2023-07-20T07:11:21;22.60;99.90
851;DHT22;412;51.400;7.480;2023-07-20T07:13:47;22.60;99.90
851;DHT22;412;51.400;7.480;2023-07-20T07:16:15;22.40;99.90
851;DHT22;412;51.400;7.480;2023-07-20T07:18:47;22.30;99.90
851;DHT22;412;51.400;7.480;2023-07-20T07:21:13;22.10;99.90
851;DHT22;412;51.400;7.480;2023-07-20T07:23:39;22.00;99.90
851;DHT22;412;51.400;7.480;2023-07-20T07:26:05;21.80;99.90
851;DHT22;412;51.400;7.480;2023-07-20T07:28:31;21.70;99.90
851;DHT22;412;51.400;7.480;2023-07-20T07:30:59;21.60;99.90
851;DHT22;412;51.400;7.480;2023-07-20T07:33:26;21.60;99.90
851;DHT22;412;51.400;7.480;2023-07-20T07:35:52;21.60;99.90
851;DHT22;412;51.400;7.480;2023-07-20T07:38:20;21.60;99.90
851;DHT22;412;51.400;7.480;2023-07-20T07:40:46;21.70;99.90
851;DHT22;412;51.400;7.480;2023-07-20T07:43:12;21.60;99.90
851;DHT22;412;51.400;7.480;2023-07-20T07:45:39;21.60;99.90
851;DHT22;412;51.400;7.480;2023-07-20T07:48:06;21.50;99.90
851;DHT22;412;51.400;7.480;2023-07-20T07:50:33;21.50;99.90
851;DHT22;412;51.400;7.480;2023-07-20T07:52:59;21.50;99.90
851;DHT22;412;51.400;7.480;2023-07-20T07:55:25;21.50;99.90
851;DHT22;412;51.400;7.480;2023-07-20T07:57:54;21.70;99.90
851;DHT22;412;51.400;7.480;2023-07-20T08:00:20;21.70;99.90
851;DHT22;412;51.400;7.480;2023-07-20T08:02:47;21.70;99.90
851;DHT22;412;51.400;7.480;2023-07-20T08:05:13;21.70;99.90
851;DHT22;412;51.400;7.480;2023-07-20T08:07:39;21.80;99.90
851;DHT22;412;51.400;7.480;2023-07-20T08:10:06;21.80;99.90
851;DHT22;412;51.400;7.480;2023-07-20T08:12:32;21.80;99.90
851;DHT22;412;51.400;7.480;2023-07-20T08:14:58;21.80;99.90
851;DHT22;412;51.400;7.480;2023-07-20T08:17:24;21.80;99.90
851;DHT22;412;51.400;7.480;2023-07-20T08:19:50;21.90;99.90
851;DHT22;412;51.400;7.480;2023-07-20T08:22:15;22.00;99.90
851;DHT22;412;51.400;7.480;2023-07-20T08:24:42;22.10;99.90
851;DHT22;412;51.400;7.480;2023-07-20T08:27:08;22.20;99.90
851;DHT22;412;51.400;7.480;2023-07-20T08:29:35;22.30;99.90
851;DHT22;412;51.400;7.480;2023-07-20T08:32:01;22.40;99.90
851;DHT22;412;51.400;7.480;2023-07-20T08:34:28;22.50;99.90
851;DHT22;412;51.400;7.480;2023-07-20T08:36:53;22.50;99.90
851;DHT22;412;51.400;7.480;2023-07-20T08:39:19;22.40;99.90
851;DHT22;412;51.400;7.480;2023-07-20T08:41:48;22.30;99.90
851;DHT22;412;51.400;7.480;2023-07-20T08:44:14;22.30;99.90
851;DHT22;412;51.400;7.480;2023-07-20T08:46:41;22.20;99.90
851;DHT22;412;51.400;7.480;2023-07-20T08:49:08;22.00;99.90
851;DHT22;412;51.400;7.480;2023-07-20T08:51:35;22.00;99.90
851;DHT22;412;51.400;7.480;2023-07-20T08:54:01;21.90;99.90
851;DHT22;412;51.400;7.480;2023-07-20T08:56:27;21.90;99.90
851;DHT22;412;51.400;7.480;2023-07-20T08:58:54;21.90;99.90
851;DHT22;412;51.400;7.480;2023-07-20T09:01:21;22.00;99.90
851;DHT22;412;51.400;7.480;2023-07-20T09:03:48;22.20;99.90
851;DHT22;412;51.400;7.480;2023-07-20T09:06:14;22.40;99.90
851;DHT22;412;51.400;7.480;2023-07-20T09:08:41;22.60;99.90
851;DHT22;412;51.400;7.480;2023-07-20T09:11:07;22.80;99.90
851;DHT22;412;51.400;7.480;2023-07-20T09:13:34;23.00;99.70
851;DHT22;412;51.400;7.480;2023-07-20T09:16:00;23.20;99.90
851;DHT22;412;51.400;7.480;2023-07-20T09:18:27;23.30;99.40
851;DHT22;412;51.400;7.480;2023-07-20T09:21:03;23.30;97.00
851;DHT22;412;51.400;7.480;2023-07-20T09:23:35;23.30;97.10
851;DHT22;412;51.400;7.480;2023-07-20T09:26:13;23.20;98.60
851;DHT22;412;51.400;7.480;2023-07-20T09:29:08;23.10;97.00
851;DHT22;412;51.400;7.480;2023-07-20T09:31:38;23.10;98.00
851;DHT22;412;51.400;7.480;2023-07-20T09:34:06;23.00;97.50
851;DHT22;412;51.400;7.480;2023-07-20T09:36:38;23.00;97.10
851;DHT22;412;51.400;7.480;2023-07-20T09:39:04;22.90;97.20
851;DHT22;412;51.400;7.480;2023-07-20T09:41:39;22.90;97.90
851;DHT22;412;51.400;7.480;2023-07-20T09:44:06;23.00;97.20
851;DHT22;412;51.400;7.480;2023-07-20T09:46:47;23.00;97.40
851;DHT22;412;51.400;7.480;2023-07-20T09:49:14;23.00;97.20
851;DHT22;412;51.400;7.480;2023-07-20T09:51:44;23.00;96.50
851;DHT22;412;51.400;7.480;2023-07-20T09:54:10;23.00;97.30
851;DHT22;412;51.400;7.480;2023-07-20T09:56:38;23.00;97.40
851;DHT22;412;51.400;7.480;2023-07-20T09:59:05;23.20;99.50
851;DHT22;412;51.400;7.480;2023-07-20T10:01:32;23.30;99.40
851;DHT22;412;51.400;7.480;2023-07-20T10:03:58;23.40;96.60
851;DHT22;412;51.400;7.480;2023-07-20T10:06:28;23.30;94.50
851;DHT22;412;51.400;7.480;2023-07-20T10:09:00;23.40;95.00
851;DHT22;412;51.400;7.480;2023-07-20T10:11:31;23.30;93.30
851;DHT22;412;51.400;7.480;2023-07-20T10:13:59;23.30;95.00
851;DHT22;412;51.400;7.480;2023-07-20T10:16:34;23.50;96.00
851;DHT22;412;51.400;7.480;2023-07-20T10:19:11;23.60;94.90
851;DHT22;412;51.400;7.480;2023-07-20T10:21:42;23.60;93.80
851;DHT22;412;51.400;7.480;2023-07-20T10:24:10;23.50;92.90
851;DHT22;412;51.400;7.480;2023-07-20T10:26:37;23.30;94.20
851;DHT22;412;51.400;7.480;2023-07-20T10:29:03;23.30;93.70
851;DHT22;412;51.400;7.480;2023-07-20T10:31:30;23.50;94.00
851;DHT22;412;51.400;7.480;2023-07-20T10:33:57;23.60;94.20
851;DHT22;412;51.400;7.480;2023-07-20T10:36:27;23.90;93.30
851;DHT22;412;51.400;7.480;2023-07-20T10:38:57;24.00;90.30
851;DHT22;412;51.400;7.480;2023-07-20T10:41:31;24.20;90.00
851;DHT22;412;51.400;7.480;2023-07-20T10:44:08;24.40;91.00
851;DHT22;412;51.400;7.480;2023-07-20T10:46:44;24.50;86.00
851;DHT22;412;51.400;7.480;2023-07-20T10:49:14;24.50;86.90
851;DHT22;412;51.400;7.480;2023-07-20T10:51:47;24.50;86.40
851;DHT22;412;51.400;7.480;2023-07-20T10:56:42;24.20;88.40
851;DHT22;412;51.400;7.480;2023-07-20T10:59:36;24.10;87.50
851;DHT22;412;51.400;7.480;2023-07-20T11:02:08;24.20;89.20
851;DHT22;412;51.400;7.480;2023-07-20T11:04:43;24.20;87.70
851;DHT22;412;51.400;7.480;2023-07-20T11:07:09;24.40;85.50
851;DHT22;412;51.400;7.480;2023-07-20T11:09:36;24.60;89.10
851;DHT22;412;51.400;7.480;2023-07-20T11:12:16;24.70;87.90
851;DHT22;412;51.400;7.480;2023-07-20T11:14:53;24.70;84.90
851;DHT22;412;51.400;7.480;2023-07-20T11:17:19;24.70;84.70
851;DHT22;412;51.400;7.480;2023-07-20T11:19:55;24.80;86.50
851;DHT22;412;51.400;7.480;2023-07-20T11:22:22;24.80;80.90
851;DHT22;412;51.400;7.480;2023-07-20T11:24:48;24.80;79.20
851;DHT22;412;51.400;7.480;2023-07-20T11:27:15;24.70;81.40
851;DHT22;412;51.400;7.480;2023-07-20T11:29:41;24.80;83.00
851;DHT22;412;51.400;7.480;2023-07-20T11:32:07;24.80;82.10
851;DHT22;412;51.400;7.480;2023-07-20T11:34:34;24.90;82.90
851;DHT22;412;51.400;7.480;2023-07-20T11:37:01;24.90;82.10
851;DHT22;412;51.400;7.480;2023-07-20T11:39:29;24.90;82.00
851;DHT22;412;51.400;7.480;2023-07-20T11:41:55;25.10;85.20
851;DHT22;412;51.400;7.480;2023-07-20T11:44:23;25.20;84.50
851;DHT22;412;51.400;7.480;2023-07-20T11:47:12;25.50;86.70
851;DHT22;412;51.400;7.480;2023-07-20T11:49:42;25.70;78.40
851;DHT22;412;51.400;7.480;2023-07-20T11:52:11;25.80;77.40
851;DHT22;412;51.400;7.480;2023-07-20T11:54:39;25.90;77.80
851;DHT22;412;51.400;7.480;2023-07-20T11:57:06;26.10;76.50
851;DHT22;412;51.400;7.480;2023-07-20T11:59:32;26.10;76.00
851;DHT22;412;51.400;7.480;2023-07-20T12:02:02;26.10;77.20
851;DHT22;412;51.400;7.480;2023-07-20T12:04:29;26.00;74.70
851;DHT22;412;51.400;7.480;2023-07-20T12:06:55;25.90;70.30
851;DHT22;412;51.400;7.480;2023-07-20T12:09:21;25.80;76.30
851;DHT22;412;51.400;7.480;2023-07-20T12:11:49;25.70;77.50
851;DHT22;412;51.400;7.480;2023-07-20T12:14:15;25.80;77.20
851;DHT22;412;51.400;7.480;2023-07-20T12:16:41;25.90;77.20
851;DHT22;412;51.400;7.480;2023-07-20T12:19:12;25.90;74.30
851;DHT22;412;51.400;7.480;2023-07-20T12:21:40;26.00;75.20
851;DHT22;412;51.400;7.480;2023-07-20T12:24:08;26.00;72.90
851;DHT22;412;51.400;7.480;2023-07-20T12:26:35;26.10;73.60
851;DHT22;412;51.400;7.480;2023-07-20T12:29:04;26.00;71.90
851;DHT22;412;51.400;7.480;2023-07-20T12:31:30;25.90;69.50
851;DHT22;412;51.400;7.480;2023-07-20T12:33:57;25.60;70.70
851;DHT22;412;51.400;7.480;2023-07-20T12:36:24;25.50;71.40
851;DHT22;412;51.400;7.480;2023-07-20T12:38:50;25.40;72.60
851;DHT22;412;51.400;7.480;2023-07-20T12:41:16;25.30;72.40
851;DHT22;412;51.400;7.480;2023-07-20T12:43:42;25.20;72.40
851;DHT22;412;51.400;7.480;2023-07-20T12:46:09;25.10;71.90
851;DHT22;412;51.400;7.480;2023-07-20T12:48:36;25.00;71.30
851;DHT22;412;51.400;7.480;2023-07-20T12:51:07;25.10;75.20
851;DHT22;412;51.400;7.480;2023-07-20T12:53:33;25.10;75.40
851;DHT22;412;51.400;7.480;2023-07-20T12:56:00;25.10;71.60
851;DHT22;412;51.400;7.480;2023-07-20T12:58:26;25.20;75.30
851;DHT22;412;51.400;7.480;2023-07-20T13:00:52;25.30;73.80
851;DHT22;412;51.400;7.480;2023-07-20T13:03:18;25.40;73.90
851;DHT22;412;51.400;7.480;2023-07-20T13:05:45;25.60;73.20
851;DHT22;412;51.400;7.480;2023-07-20T13:08:11;25.60;72.90
851;DHT22;412;51.400;7.480;2023-07-20T13:10:37;25.60;71.40
851;DHT22;412;51.400;7.480;2023-07-20T13:13:05;25.50;71.90
851;DHT22;412;51.400;7.480;2023-07-20T13:15:32;25.40;71.10
851;DHT22;412;51.400;7.480;2023-07-20T13:17:58;25.40;74.00
851;DHT22;412;51.400;7.480;2023-07-20T13:20:25;25.30;70.60
851;DHT22;412;51.400;7.480;2023-07-20T13:22:51;25.20;70.80
851;DHT22;412;51.400;7.480;2023-07-20T13:25:17;25.20;72.50
851;DHT22;412;51.400;7.480;2023-07-20T13:27:44;25.20;74.20
851;DHT22;412;51.400;7.480;2023-07-20T13:30:11;25.20;71.80
851;DHT22;412;51.400;7.480;2023-07-20T13:32:43;25.20;78.00
851;DHT22;412;51.400;7.480;2023-07-20T13:35:09;25.20;76.10
851;DHT22;412;51.400;7.480;2023-07-20T13:37:36;25.20;69.90
851;DHT22;412;51.400;7.480;2023-07-20T13:40:01;25.30;72.40
851;DHT22;412;51.400;7.480;2023-07-20T13:42:29;25.40;72.00
851;DHT22;412;51.400;7.480;2023-07-20T13:44:55;25.50;72.70
851;DHT22;412;51.400;7.480;2023-07-20T13:47:21;25.50;72.60
851;DHT22;412;51.400;7.480;2023-07-20T13:49:47;25.50;69.50
851;DHT22;412;51.400;7.480;2023-07-20T13:52:12;25.40;68.80
851;DHT22;412;51.400;7.480;2023-07-20T13:54:38;25.40;71.00
851;DHT22;412;51.400;7.480;2023-07-20T13:57:04;25.30;72.20
851;DHT22;412;51.400;7.480;2023-07-20T13:59:30;25.30;69.60
851;DHT22;412;51.400;7.480;2023-07-20T14:01:56;25.30;73.10
851;DHT22;412;51.400;7.480;2023-07-20T14:04:22;25.20;72.30
851;DHT22;412;51.400;7.480;2023-07-20T14:06:47;25.10;77.30
851;DHT22;412;51.400;7.480;2023-07-20T14:09:13;25.00;75.30
851;DHT22;412;51.400;7.480;2023-07-20T14:11:39;24.90;78.00
851;DHT22;412;51.400;7.480;2023-07-20T14:14:05;24.80;75.40
851;DHT22;412;51.400;7.480;2023-07-20T14:16:31;24.70;78.50
851;DHT22;412;51.400;7.480;2023-07-20T14:18:58;24.70;79.00
851;DHT22;412;51.400;7.480;2023-07-20T14:21:23;24.60;81.90
851;DHT22;412;51.400;7.480;2023-07-20T14:23:51;24.50;80.60
851;DHT22;412;51.400;7.480;2023-07-20T14:26:18;24.40;82.50
851;DHT22;412;51.400;7.480;2023-07-20T14:28:44;24.40;78.00
851;DHT22;412;51.400;7.480;2023-07-20T14:31:11;24.40;80.30
851;DHT22;412;51.400;7.480;2023-07-20T14:33:36;24.40;79.10
851;DHT22;412;51.400;7.480;2023-07-20T14:36:03;24.40;79.90
851;DHT22;412;51.400;7.480;2023-07-20T14:38:30;24.40;80.20
851;DHT22;412;51.400;7.480;2023-07-20T14:40:56;24.50;79.00
851;DHT22;412;51.400;7.480;2023-07-20T14:43:22;24.60;77.10
851;DHT22;412;51.400;7.480;2023-07-20T14:45:48;24.70;82.00
851;DHT22;412;51.400;7.480;2023-07-20T14:48:14;24.90;78.80
851;DHT22;412;51.400;7.480;2023-07-20T14:50:40;24.90;80.00
851;DHT22;412;51.400;7.480;2023-07-20T14:53:05;25.00;73.30
851;DHT22;412;51.400;7.480;2023-07-20T14:55:33;25.10;83.00
851;DHT22;412;51.400;7.480;2023-07-20T14:57:59;25.00;81.90
851;DHT22;412;51.400;7.480;2023-07-20T15:00:24;25.10;77.90
851;DHT22;412;51.400;7.480;2023-07-20T15:02:51;25.20;75.60
851;DHT22;412;51.400;7.480;2023-07-20T15:05:22;25.20;73.50
851;DHT22;412;51.400;7.480;2023-07-20T15:07:49;25.30;70.40
851;DHT22;412;51.400;7.480;2023-07-20T15:10:16;25.30;71.10
851;DHT22;412;51.400;7.480;2023-07-20T15:12:42;25.30;70.80
851;DHT22;412;51.400;7.480;2023-07-20T15:15:13;25.30;74.20
851;DHT22;412;51.400;7.480;2023-07-20T15:17:43;25.30;72.00
851;DHT22;412;51.400;7.480;2023-07-20T15:20:11;25.20;68.60
851;DHT22;412;51.400;7.480;2023-07-20T15:22:37;25.10;67.80
851;DHT22;412;51.400;7.480;2023-07-20T15:25:08;25.10;70.00
851;DHT22;412;51.400;7.480;2023-07-20T15:27:37;24.90;70.00
851;DHT22;412;51.400;7.480;2023-07-20T15:30:04;24.80;71.50
851;DHT22;412;51.400;7.480;2023-07-20T15:32:30;24.80;69.80
851;DHT22;412;51.400;7.480;2023-07-20T15:34:56;24.70;69.80
851;DHT22;412;51.400;7.480;2023-07-20T15:37:23;24.70;72.10
851;DHT22;412;51.400;7.480;2023-07-20T15:39:49;24.70;72.70
851;DHT22;412;51.400;7.480;2023-07-20T15:42:16;24.70;71.10
851;DHT22;412;51.400;7.480;2023-07-20T15:44:42;24.60;70.80
851;DHT22;412;51.400;7.480;2023-07-20T15:47:08;24.60;70.30
851;DHT22;412;51.400;7.480;2023-07-20T15:49:34;24.60;68.20
851;DHT22;412;51.400;7.480;2023-07-20T15:51:59;24.60;67.80
851;DHT22;412;51.400;7.480;2023-07-20T15:54:25;24.60;67.10
851;DHT22;412;51.400;7.480;2023-07-20T15:56:51;24.60;67.00
851;DHT22;412;51.400;7.480;2023-07-20T15:59:18;24.60;69.30
851;DHT22;412;51.400;7.480;2023-07-20T16:01:44;24.60;68.20
851;DHT22;412;51.400;7.480;2023-07-20T16:04:11;24.50;67.00
851;DHT22;412;51.400;7.480;2023-07-20T16:06:39;24.50;66.20
851;DHT22;412;51.400;7.480;2023-07-20T16:09:05;24.40;67.80
851;DHT22;412;51.400;7.480;2023-07-20T16:11:32;24.40;69.80
851;DHT22;412;51.400;7.480;2023-07-20T16:13:59;24.30;67.90
851;DHT22;412;51.400;7.480;2023-07-20T16:16:25;24.20;68.70
851;DHT22;412;51.400;7.480;2023-07-20T16:18:51;24.20;68.70
851;DHT22;412;51.400;7.480;2023-07-20T16:21:17;24.20;69.60
851;DHT22;412;51.400;7.480;2023-07-20T16:23:43;24.10;70.30
851;DHT22;412;51.400;7.480;2023-07-20T16:26:09;24.10;71.40
851;DHT22;412;51.400;7.480;2023-07-20T16:28:35;24.10;72.60
851;DHT22;412;51.400;7.480;2023-07-20T16:31:09;24.10;72.20
851;DHT22;412;51.400;7.480;2023-07-20T16:33:35;24.10;69.80
851;DHT22;412;51.400;7.480;2023-07-20T16:36:01;24.10;70.80
851;DHT22;412;51.400;7.480;2023-07-20T16:38:26;24.10;72.20
851;DHT22;412;51.400;7.480;2023-07-20T16:40:56;24.00;72.10
851;DHT22;412;51.400;7.480;2023-07-20T16:43:22;24.00;70.30